METAR AND TAF INFORMATION
METAR FOR VTSP
ADDS - METARS form results

(1946 UTC 03 August 2021)
Data provider http://aviationweather.gov/metar/data/
 
METAR text: VTSP 031930Z 27012KT 9999 SCT020 28/24 Q1010 NOSIG
Conditions at: VTSP (PHUKET INTL AIRP, TH) observed 1930 UTC 03 August 2021
Temperature: 28.0°C (82°F)
Dewpoint: 24.0°C (75°F) [RH = 79%]
Pressure (altimeter): 29.82 inches Hg (1010.0 mb)
Winds: from the W (270 degrees) at 14 MPH (12 knots; 6.2 m/s)
Visibility: 6 or more miles (10+ km)
Ceiling: at least 12,000 feet AGL
Clouds: scattered clouds at 2000 feet AGL
Weather: no significant weather observed at this time

METAR text: VTSP 031900Z 27012KT 9999 SCT020 28/24 Q1010 NOSIG
Conditions at: VTSP (PHUKET INTL AIRP, TH) observed 1900 UTC 03 August 2021
Temperature: 28.0°C (82°F)
Dewpoint: 24.0°C (75°F) [RH = 79%]
Pressure (altimeter): 29.82 inches Hg (1010.0 mb)
Winds: from the W (270 degrees) at 14 MPH (12 knots; 6.2 m/s)
Visibility: 6 or more miles (10+ km)
Ceiling: at least 12,000 feet AGL
Clouds: scattered clouds at 2000 feet AGL
Weather: no significant weather observed at this time

Forecast for: VTSP (PHUKET INTL AIRP, TH)
Text: TAF VTSP 031700Z 0318/0424 26014KT 9999 SCT020
Forecast period: 1800 UTC 03 August 2021 to 0000 UTC 05 August 2021
Forecast type: FROM: standard forecast or significant change
Winds: from the W (260 degrees) at 16 MPH (14 knots; 7.2 m/s)
Visibility: 6 or more miles (10+ km)
Ceiling: at least 12,000 feet AGL
Clouds: scattered clouds at 2000 feet AGL
Weather: no significant weather forecast for this period
Text: TEMPO 0400/0406 26015G30KT 3000 TSRA FEW016CB SCT020 BKN100
Forecast period: 0000 to 0600 UTC 04 August 2021
Forecast type: TEMPORARY: The following changes expected for less than half the time period
Winds: from the W (260 degrees) at 17 MPH (15 knots; 7.7 m/s)
gusting to 34 MPH (30 knots; 15.4 m/s)
Visibility: 1.86 miles (2.99 km)
Ceiling: 10000 feet AGL
Clouds: few clouds at 1600 feet AGL
scattered clouds at 2000 feet AGL
broken clouds at 10000 feet AGL
Weather: TSRA  (rain associated with thunderstorm(s))

 AIRPORT MAP

 RUNWAY INFORMATION
Runway 09 Runway length 9843 ft Runway width 148 ft
Runway elevation 19 ft Runway displaced threshold 0 ft Runway heading 85
Runway 27 Runway length 9843 ft Runway width 148 ft
Runway elevation 82 ft Runway displaced threshold 0 ft Runway heading 265

 AIRPORT FREQUENCIES
Type APP Name APP Frequency 124.7 MHZ
Type ATIS Name ATIS Frequency 128 MHZ
Type GND Name GND Frequency 121.9 MHZ
Type TWR Name TWR Frequency 118.1 MHZ

 AIRPORT NEAR NAVIGATION AIDS
Type NDB Name Phuket Frequency 360 KHZ
Type VOR-DME Name Phuket Frequency 116900 KHZ





Powered by Virtual Airlines Manager

Maps by Rafael Santos